RYR59SQ LEPA-EDDG
Flight info
| Callsign | RYR59SQ |
|---|---|
| Flight time | N/A |
| Altitude | 36000 |
| Route | MEROS4A MEROS N853 LUMAS DCT MAXIR DCT LUSOL DCT BODRU DCT OKTET DCT IRMAR DCT KINES DCT VANAS DCT MOBLO DCT UBIMA DCT GILIR DCT PENDU DCT IXILU DCT GIVOR DCT SORAL DCT IBERA DCT DIK/N0442F370 T856 DEPOK/N0392F230 T856 QATJA N853 HMM DCT |
| Aircraft | A320/M-SDE3FGHIRWY/LB1 |
Departure
| Time | N/A |
|---|---|
| Airport | Palma de Mallorca Airport (LEPA) |
Arrival
| Time | 2026-04-15 16:39 |
|---|---|
| Airport | Münster Osnabrück Airport (EDDG) |
| Time | Latitude | Longitude | Altitude | Speed | Heading |
|---|---|---|---|---|---|
| 2026-04-15 14:44 | 40.55562 | 3.54687 | 29501 ft | 410 kts | 26° |
| 2026-04-15 14:45 | 40.58027 | 3.56562 | 29971 ft | 409 kts | 26° |
| 2026-04-15 14:45 | 40.60497 | 3.58390 | 30411 ft | 407 kts | 25° |
| 2026-04-15 14:45 | 40.62971 | 3.60198 | 30794 ft | 406 kts | 25° |
| 2026-04-15 14:45 | 40.65434 | 3.62000 | 31173 ft | 405 kts | 25° |
| 2026-04-15 14:46 | 40.67896 | 3.63808 | 31550 ft | 404 kts | 25° |
| 2026-04-15 14:46 | 40.70342 | 3.65617 | 31926 ft | 403 kts | 25° |
| 2026-04-15 14:46 | 40.72784 | 3.67438 | 32318 ft | 403 kts | 25° |
| 2026-04-15 14:46 | 40.75220 | 3.69263 | 32707 ft | 402 kts | 25° |
| 2026-04-15 14:47 | 40.77613 | 3.71064 | 33093 ft | 401 kts | 25° |
| 2026-04-15 14:47 | 40.80029 | 3.72882 | 33484 ft | 400 kts | 25° |
| 2026-04-15 14:47 | 40.82447 | 3.74695 | 33880 ft | 399 kts | 25° |
| 2026-04-15 14:47 | 40.84861 | 3.76501 | 34239 ft | 398 kts | 25° |
| 2026-04-15 14:48 | 40.87267 | 3.78300 | 34555 ft | 397 kts | 25° |
| 2026-04-15 14:48 | 40.89669 | 3.80102 | 34844 ft | 397 kts | 25° |
| 2026-04-15 14:48 | 40.92067 | 3.81906 | 35139 ft | 396 kts | 25° |
| 2026-04-15 14:48 | 40.94460 | 3.83707 | 35417 ft | 396 kts | 25° |
| 2026-04-15 14:49 | 40.96852 | 3.85510 | 35687 ft | 395 kts | 25° |
| 2026-04-15 14:49 | 40.99236 | 3.87308 | 35954 ft | 394 kts | 25° |
| 2026-04-15 14:49 | 41.01623 | 3.89108 | 36131 ft | 395 kts | 25° |
| 2026-04-15 14:50 | 41.06453 | 3.92755 | 36178 ft | 405 kts | 25° |
| 2026-04-15 14:50 | 41.11373 | 3.96473 | 36166 ft | 408 kts | 25° |
| 2026-04-15 14:51 | 41.16309 | 4.00210 | 36179 ft | 409 kts | 25° |
| 2026-04-15 14:51 | 41.21243 | 4.03961 | 36181 ft | 409 kts | 25° |
| 2026-04-15 14:52 | 41.26141 | 4.07692 | 36171 ft | 409 kts | 26° |
| 2026-04-15 14:52 | 41.31078 | 4.11456 | 36178 ft | 409 kts | 25° |
| 2026-04-15 14:53 | 41.36020 | 4.15221 | 36182 ft | 409 kts | 25° |
| 2026-04-15 14:53 | 41.40967 | 4.18999 | 36180 ft | 410 kts | 26° |
| 2026-04-15 14:54 | 41.45909 | 4.22789 | 36182 ft | 410 kts | 26° |
| 2026-04-15 14:54 | 41.50017 | 4.25940 | 36185 ft | 410 kts | 26° |
| 2026-04-15 14:55 | 41.54962 | 4.29732 | 36181 ft | 410 kts | 26° |
| 2026-04-15 14:55 | 41.59902 | 4.33539 | 36183 ft | 410 kts | 26° |
| 2026-04-15 14:56 | 41.64842 | 4.37356 | 36182 ft | 410 kts | 26° |
| 2026-04-15 14:56 | 41.69785 | 4.41171 | 36181 ft | 410 kts | 26° |
| 2026-04-15 14:57 | 41.74725 | 4.44986 | 36177 ft | 410 kts | 26° |
| 2026-04-15 14:57 | 41.79665 | 4.48815 | 36164 ft | 410 kts | 26° |
| 2026-04-15 14:58 | 41.84574 | 4.52628 | 36177 ft | 410 kts | 26° |
| 2026-04-15 14:58 | 41.89512 | 4.56468 | 36174 ft | 410 kts | 26° |
| 2026-04-15 14:59 | 41.94446 | 4.60313 | 36169 ft | 410 kts | 26° |
| 2026-04-15 14:59 | 41.99383 | 4.64165 | 36170 ft | 410 kts | 26° |
| 2026-04-15 15:00 | 42.04314 | 4.68026 | 36171 ft | 410 kts | 26° |
| 2026-04-15 15:00 | 42.09245 | 4.71894 | 36165 ft | 410 kts | 26° |
| 2026-04-15 15:01 | 42.14177 | 4.75767 | 36167 ft | 410 kts | 26° |
| 2026-04-15 15:01 | 42.19110 | 4.79643 | 36164 ft | 410 kts | 26° |
| 2026-04-15 15:02 | 42.24005 | 4.83503 | 36158 ft | 411 kts | 26° |
| 2026-04-15 15:02 | 42.28933 | 4.87398 | 36164 ft | 411 kts | 26° |
| 2026-04-15 15:03 | 42.33864 | 4.91294 | 36161 ft | 411 kts | 26° |
| 2026-04-15 15:03 | 42.38796 | 4.95201 | 36159 ft | 411 kts | 27° |
| 2026-04-15 15:04 | 42.43725 | 4.99104 | 36155 ft | 411 kts | 27° |
| 2026-04-15 15:04 | 42.48653 | 5.03025 | 36158 ft | 411 kts | 27° |
| 2026-04-15 15:05 | 42.53577 | 5.06945 | 36149 ft | 411 kts | 27° |
| 2026-04-15 15:05 | 42.58504 | 5.10875 | 36149 ft | 411 kts | 27° |
| 2026-04-15 15:06 | 42.65886 | 5.16793 | 36142 ft | 411 kts | 27° |
| 2026-04-15 15:06 | 42.70778 | 5.20719 | 36140 ft | 411 kts | 27° |
| 2026-04-15 15:07 | 42.75707 | 5.24668 | 36138 ft | 411 kts | 27° |
| 2026-04-15 15:07 | 42.80634 | 5.28630 | 36134 ft | 412 kts | 27° |
| 2026-04-15 15:08 | 42.85560 | 5.32608 | 36132 ft | 412 kts | 27° |
| 2026-04-15 15:08 | 42.90493 | 5.36593 | 36124 ft | 412 kts | 27° |
| 2026-04-15 15:09 | 42.95420 | 5.40593 | 36123 ft | 412 kts | 27° |
| 2026-04-15 15:09 | 43.00348 | 5.44594 | 36122 ft | 412 kts | 27° |
| 2026-04-15 15:10 | 43.05289 | 5.48587 | 36120 ft | 413 kts | 27° |
| 2026-04-15 15:10 | 43.10197 | 5.52567 | 36118 ft | 413 kts | 27° |
| 2026-04-15 15:11 | 43.15165 | 5.56621 | 36113 ft | 413 kts | 27° |
| 2026-04-15 15:11 | 43.20070 | 5.60641 | 36113 ft | 414 kts | 27° |
| 2026-04-15 15:12 | 43.25012 | 5.64691 | 36110 ft | 414 kts | 27° |
| 2026-04-15 15:12 | 43.29955 | 5.68746 | 36106 ft | 414 kts | 27° |
| 2026-04-15 15:13 | 43.34900 | 5.72809 | 36109 ft | 414 kts | 27° |
| 2026-04-15 15:13 | 43.39843 | 5.76878 | 36105 ft | 414 kts | 27° |
| 2026-04-15 15:14 | 43.44785 | 5.80950 | 36102 ft | 414 kts | 28° |
| 2026-04-15 15:14 | 43.49729 | 5.85040 | 36097 ft | 414 kts | 28° |
| 2026-04-15 15:15 | 43.54668 | 5.89135 | 36088 ft | 414 kts | 28° |
| 2026-04-15 15:15 | 43.59606 | 5.93231 | 36090 ft | 414 kts | 28° |
| 2026-04-15 15:16 | 43.64547 | 5.97338 | 36091 ft | 414 kts | 28° |
| 2026-04-15 15:16 | 43.69488 | 6.01452 | 36084 ft | 415 kts | 28° |
| 2026-04-15 15:17 | 43.74392 | 6.05544 | 36083 ft | 415 kts | 28° |
| 2026-04-15 15:17 | 43.79424 | 6.09406 | 36086 ft | 413 kts | 24° |
| 2026-04-15 15:18 | 43.84584 | 6.12910 | 36084 ft | 413 kts | 24° |
| 2026-04-15 15:18 | 43.89741 | 6.16421 | 36093 ft | 413 kts | 24° |
| 2026-04-15 15:19 | 43.94904 | 6.19943 | 36087 ft | 413 kts | 24° |
| 2026-04-15 15:19 | 44.00061 | 6.23476 | 36089 ft | 414 kts | 24° |
| 2026-04-15 15:20 | 44.05232 | 6.27018 | 36089 ft | 414 kts | 24° |
| 2026-04-15 15:20 | 44.10401 | 6.30569 | 36095 ft | 414 kts | 24° |
| 2026-04-15 15:21 | 44.15534 | 6.34108 | 36100 ft | 415 kts | 24° |
| 2026-04-15 15:21 | 44.20713 | 6.37679 | 36100 ft | 415 kts | 24° |
| 2026-04-15 15:22 | 44.25890 | 6.41252 | 36099 ft | 415 kts | 24° |
| 2026-04-15 15:22 | 44.31073 | 6.44834 | 36102 ft | 416 kts | 24° |
| 2026-04-15 15:23 | 44.36249 | 6.48428 | 36107 ft | 416 kts | 24° |
| 2026-04-15 15:23 | 44.41432 | 6.52032 | 36108 ft | 416 kts | 24° |
| 2026-04-15 15:24 | 44.46614 | 6.55646 | 36107 ft | 416 kts | 24° |
| 2026-04-15 15:24 | 44.51803 | 6.59258 | 36112 ft | 416 kts | 24° |
| 2026-04-15 15:25 | 44.56990 | 6.62874 | 36107 ft | 416 kts | 24° |
| 2026-04-15 15:25 | 44.62177 | 6.66500 | 36116 ft | 417 kts | 24° |
| 2026-04-15 15:26 | 44.67330 | 6.70115 | 36137 ft | 417 kts | 24° |
| 2026-04-15 15:26 | 44.72522 | 6.73776 | 36121 ft | 416 kts | 24° |
| 2026-04-15 15:27 | 44.77738 | 6.77307 | 36133 ft | 415 kts | 18° |
| 2026-04-15 15:27 | 44.83365 | 6.78793 | 36140 ft | 412 kts | 359° |
| 2026-04-15 15:28 | 44.89089 | 6.78447 | 36137 ft | 412 kts | 357° |
| 2026-04-15 15:28 | 44.94826 | 6.78068 | 36140 ft | 413 kts | 357° |
| 2026-04-15 15:29 | 45.00574 | 6.77694 | 36139 ft | 414 kts | 357° |
| 2026-04-15 15:29 | 45.06332 | 6.77317 | 36146 ft | 415 kts | 357° |
| 2026-04-15 15:30 | 45.12061 | 6.76940 | 36153 ft | 416 kts | 357° |
| 2026-04-15 15:30 | 45.17840 | 6.76558 | 36156 ft | 416 kts | 356° |
| 2026-04-15 15:31 | 45.23631 | 6.76178 | 36159 ft | 417 kts | 356° |
| 2026-04-15 15:31 | 45.29422 | 6.75790 | 36160 ft | 417 kts | 356° |
| 2026-04-15 15:32 | 45.35230 | 6.75400 | 36168 ft | 418 kts | 356° |
| 2026-04-15 15:32 | 45.41035 | 6.75018 | 36168 ft | 418 kts | 356° |
| 2026-04-15 15:33 | 45.46851 | 6.74621 | 36169 ft | 418 kts | 356° |
| 2026-04-15 15:33 | 45.52663 | 6.74221 | 36174 ft | 419 kts | 356° |
| 2026-04-15 15:34 | 45.58496 | 6.73818 | 36171 ft | 419 kts | 356° |
| 2026-04-15 15:34 | 45.64280 | 6.73418 | 36167 ft | 419 kts | 356° |
| 2026-04-15 15:35 | 45.70119 | 6.73019 | 36169 ft | 421 kts | 356° |
| 2026-04-15 15:35 | 45.75976 | 6.72619 | 36179 ft | 422 kts | 356° |
| 2026-04-15 15:36 | 45.81839 | 6.72222 | 36183 ft | 422 kts | 356° |
| 2026-04-15 15:36 | 45.87706 | 6.71819 | 36186 ft | 422 kts | 356° |
| 2026-04-15 15:37 | 45.93577 | 6.71425 | 36191 ft | 423 kts | 356° |
| 2026-04-15 15:37 | 45.99457 | 6.71020 | 36192 ft | 423 kts | 356° |
| 2026-04-15 15:38 | 46.05337 | 6.70616 | 36198 ft | 424 kts | 356° |
| 2026-04-15 15:38 | 46.11227 | 6.70168 | 36198 ft | 423 kts | 352° |
| 2026-04-15 15:39 | 46.16906 | 6.68065 | 36200 ft | 422 kts | 341° |
| 2026-04-15 15:39 | 46.22472 | 6.65352 | 36205 ft | 423 kts | 340° |
| 2026-04-15 15:40 | 46.28046 | 6.62635 | 36206 ft | 423 kts | 340° |
| 2026-04-15 15:40 | 46.33629 | 6.59911 | 36207 ft | 424 kts | 340° |
| 2026-04-15 15:41 | 46.39219 | 6.57191 | 36210 ft | 424 kts | 340° |
| 2026-04-15 15:41 | 46.44775 | 6.54482 | 36212 ft | 424 kts | 340° |
| 2026-04-15 15:42 | 46.50377 | 6.51732 | 36215 ft | 425 kts | 340° |
| 2026-04-15 15:42 | 46.55979 | 6.48972 | 36214 ft | 425 kts | 340° |
| 2026-04-15 15:43 | 46.61587 | 6.46197 | 36216 ft | 426 kts | 340° |
| 2026-04-15 15:43 | 46.67198 | 6.43419 | 36216 ft | 426 kts | 340° |
| 2026-04-15 15:44 | 46.72817 | 6.40644 | 36216 ft | 427 kts | 340° |
| 2026-04-15 15:44 | 46.78444 | 6.37860 | 36217 ft | 427 kts | 340° |
| 2026-04-15 15:45 | 46.84073 | 6.35058 | 36217 ft | 427 kts | 339° |
| 2026-04-15 15:45 | 46.89667 | 6.32271 | 36216 ft | 428 kts | 339° |
| 2026-04-15 15:46 | 46.95304 | 6.29461 | 36215 ft | 428 kts | 339° |
| 2026-04-15 15:46 | 47.00952 | 6.26643 | 36213 ft | 429 kts | 339° |
| 2026-04-15 15:47 | 47.06582 | 6.23724 | 36210 ft | 428 kts | 334° |
| 2026-04-15 15:47 | 47.11935 | 6.19898 | 36210 ft | 428 kts | 332° |
| 2026-04-15 15:48 | 47.17284 | 6.16033 | 36213 ft | 429 kts | 332° |
| 2026-04-15 15:48 | 47.22646 | 6.12159 | 36207 ft | 430 kts | 332° |
| 2026-04-15 15:49 | 47.28009 | 6.08276 | 36205 ft | 430 kts | 332° |
| 2026-04-15 15:49 | 47.33472 | 6.04641 | 36204 ft | 433 kts | 340° |
| 2026-04-15 15:50 | 47.39445 | 6.03359 | 36201 ft | 439 kts | 358° |
| 2026-04-15 15:50 | 47.45521 | 6.03513 | 36203 ft | 440 kts | 358° |
| 2026-04-15 15:51 | 47.51657 | 6.03650 | 36206 ft | 441 kts | 358° |
| 2026-04-15 15:51 | 47.57793 | 6.03784 | 36208 ft | 441 kts | 358° |
| 2026-04-15 15:52 | 47.63936 | 6.03928 | 36208 ft | 442 kts | 358° |
| 2026-04-15 15:52 | 47.70087 | 6.04070 | 36209 ft | 442 kts | 358° |
| 2026-04-15 15:53 | 47.76222 | 6.04964 | 36208 ft | 447 kts | 11° |
| 2026-04-15 15:53 | 47.81243 | 6.06849 | 36207 ft | 448 kts | 11° |
| 2026-04-15 15:54 | 47.87297 | 6.09126 | 36206 ft | 449 kts | 11° |
| 2026-04-15 15:54 | 47.94343 | 6.11770 | 36208 ft | 449 kts | 11° |
| 2026-04-15 15:55 | 47.99419 | 6.13696 | 36211 ft | 450 kts | 11° |
| 2026-04-15 15:55 | 48.05489 | 6.15992 | 36210 ft | 450 kts | 11° |
| 2026-04-15 15:56 | 48.11565 | 6.18298 | 36209 ft | 451 kts | 11° |
| 2026-04-15 15:56 | 48.17610 | 6.20601 | 36211 ft | 451 kts | 11° |
| 2026-04-15 15:57 | 48.23695 | 6.22907 | 36213 ft | 451 kts | 11° |
| 2026-04-15 15:57 | 48.29789 | 6.25235 | 36214 ft | 452 kts | 11° |
| 2026-04-15 15:58 | 48.35879 | 6.27582 | 36212 ft | 452 kts | 11° |
| 2026-04-15 15:58 | 48.41970 | 6.29927 | 36215 ft | 452 kts | 11° |
| 2026-04-15 15:59 | 48.48070 | 6.32265 | 36212 ft | 452 kts | 11° |
| 2026-04-15 15:59 | 48.54165 | 6.34621 | 36213 ft | 452 kts | 11° |
| 2026-04-15 16:00 | 48.60264 | 6.36988 | 36212 ft | 453 kts | 11° |
| 2026-04-15 16:00 | 48.66386 | 6.39136 | 36211 ft | 450 kts | 4° |
| 2026-04-15 16:01 | 48.72604 | 6.39827 | 36212 ft | 448 kts | 0° |
| 2026-04-15 16:01 | 48.78786 | 6.40453 | 36232 ft | 448 kts | 0° |
| 2026-04-15 16:02 | 48.85007 | 6.41068 | 36400 ft | 448 kts | 0° |
| 2026-04-15 16:02 | 48.88117 | 6.41369 | 36521 ft | 448 kts | 0° |
| 2026-04-15 16:02 | 48.91233 | 6.41666 | 36680 ft | 448 kts | 0° |
| 2026-04-15 16:03 | 48.94344 | 6.41960 | 36845 ft | 448 kts | 0° |
| 2026-04-15 16:03 | 48.97458 | 6.42249 | 37040 ft | 448 kts | 0° |
| 2026-04-15 16:03 | 49.00567 | 6.42534 | 37255 ft | 448 kts | 0° |
| 2026-04-15 16:03 | 49.03668 | 6.42812 | 37501 ft | 447 kts | 0° |
| 2026-04-15 16:04 | 49.06774 | 6.43084 | 37774 ft | 446 kts | 0° |
| 2026-04-15 16:04 | 49.09871 | 6.43353 | 38053 ft | 445 kts | 0° |
| 2026-04-15 16:04 | 49.12953 | 6.43616 | 38362 ft | 443 kts | 0° |
| 2026-04-15 16:04 | 49.16022 | 6.43875 | 38691 ft | 440 kts | 360° |
| 2026-04-15 16:05 | 49.19071 | 6.44129 | 39000 ft | 437 kts | 360° |
| 2026-04-15 16:05 | 49.22094 | 6.44378 | 39293 ft | 433 kts | 360° |
| 2026-04-15 16:05 | 49.25097 | 6.44599 | 39499 ft | 432 kts | 356° |
| 2026-04-15 16:05 | 49.28042 | 6.43952 | 39093 ft | 426 kts | 336° |
| 2026-04-15 16:06 | 49.30782 | 6.42241 | 38421 ft | 427 kts | 338° |
| 2026-04-15 16:06 | 49.33687 | 6.41249 | 38078 ft | 431 kts | 353° |
| 2026-04-15 16:06 | 49.36670 | 6.41496 | 37808 ft | 442 kts | 9° |
| 2026-04-15 16:06 | 49.39655 | 6.42762 | 37538 ft | 448 kts | 14° |
| 2026-04-15 16:07 | 49.42645 | 6.44164 | 37275 ft | 450 kts | 14° |
| 2026-04-15 16:07 | 49.45638 | 6.45601 | 37010 ft | 451 kts | 14° |
| 2026-04-15 16:07 | 49.51633 | 6.48515 | 36501 ft | 452 kts | 14° |
| 2026-04-15 16:08 | 49.54642 | 6.49979 | 36245 ft | 453 kts | 14° |
| 2026-04-15 16:08 | 49.57648 | 6.51432 | 35995 ft | 453 kts | 14° |
| 2026-04-15 16:08 | 49.60664 | 6.52880 | 35747 ft | 454 kts | 14° |
| 2026-04-15 16:08 | 49.63681 | 6.54325 | 35502 ft | 454 kts | 14° |
| 2026-04-15 16:09 | 49.66699 | 6.55772 | 35258 ft | 454 kts | 14° |
| 2026-04-15 16:09 | 49.69716 | 6.57219 | 35022 ft | 455 kts | 14° |
| 2026-04-15 16:09 | 49.72744 | 6.58676 | 34775 ft | 455 kts | 14° |
| 2026-04-15 16:09 | 49.75762 | 6.60132 | 34535 ft | 455 kts | 14° |
| 2026-04-15 16:10 | 49.78788 | 6.61593 | 34298 ft | 455 kts | 14° |
| 2026-04-15 16:10 | 49.81816 | 6.63053 | 34041 ft | 456 kts | 14° |
| 2026-04-15 16:10 | 49.84841 | 6.64520 | 33773 ft | 456 kts | 14° |
| 2026-04-15 16:10 | 49.87869 | 6.65996 | 33524 ft | 456 kts | 14° |
| 2026-04-15 16:11 | 49.90892 | 6.67470 | 33244 ft | 456 kts | 14° |
| 2026-04-15 16:11 | 49.93915 | 6.68943 | 32982 ft | 455 kts | 14° |
| 2026-04-15 16:11 | 49.96937 | 6.70416 | 32721 ft | 453 kts | 14° |
| 2026-04-15 16:11 | 49.99935 | 6.71880 | 32469 ft | 451 kts | 14° |
| 2026-04-15 16:12 | 50.02885 | 6.73325 | 32218 ft | 449 kts | 14° |
| 2026-04-15 16:12 | 50.05860 | 6.74782 | 31957 ft | 447 kts | 14° |
| 2026-04-15 16:12 | 50.08817 | 6.76236 | 31713 ft | 445 kts | 14° |
| 2026-04-15 16:12 | 50.11761 | 6.77687 | 31473 ft | 443 kts | 14° |
| 2026-04-15 16:13 | 50.14695 | 6.79132 | 31226 ft | 441 kts | 14° |
| 2026-04-15 16:13 | 50.17611 | 6.80566 | 30991 ft | 439 kts | 14° |
| 2026-04-15 16:13 | 50.20519 | 6.81998 | 30747 ft | 437 kts | 15° |
| 2026-04-15 16:13 | 50.23411 | 6.83426 | 30509 ft | 435 kts | 15° |
| 2026-04-15 16:14 | 50.26292 | 6.84849 | 30272 ft | 433 kts | 15° |
| 2026-04-15 16:14 | 50.29154 | 6.86264 | 29999 ft | 431 kts | 15° |
| 2026-04-15 16:14 | 50.32008 | 6.87676 | 29722 ft | 429 kts | 15° |
| 2026-04-15 16:14 | 50.34848 | 6.89084 | 29449 ft | 427 kts | 15° |
| 2026-04-15 16:15 | 50.37672 | 6.90485 | 29172 ft | 425 kts | 15° |
| 2026-04-15 16:15 | 50.40493 | 6.91888 | 28899 ft | 424 kts | 15° |
| 2026-04-15 16:15 | 50.43298 | 6.93282 | 28631 ft | 422 kts | 15° |
| 2026-04-15 16:15 | 50.46096 | 6.94669 | 28368 ft | 420 kts | 15° |
| 2026-04-15 16:16 | 50.48876 | 6.96049 | 28111 ft | 418 kts | 15° |
| 2026-04-15 16:16 | 50.51645 | 6.97431 | 27847 ft | 417 kts | 15° |
| 2026-04-15 16:16 | 50.54326 | 6.98774 | 27593 ft | 416 kts | 15° |
| 2026-04-15 16:16 | 50.57124 | 7.00180 | 27331 ft | 414 kts | 15° |
| 2026-04-15 16:17 | 50.59861 | 7.01554 | 27076 ft | 412 kts | 15° |
| 2026-04-15 16:17 | 50.62590 | 7.02926 | 26820 ft | 411 kts | 15° |
| 2026-04-15 16:17 | 50.65309 | 7.04297 | 26562 ft | 409 kts | 15° |
| 2026-04-15 16:17 | 50.68015 | 7.05662 | 26323 ft | 408 kts | 15° |
| 2026-04-15 16:18 | 50.70709 | 7.07020 | 26067 ft | 406 kts | 15° |
| 2026-04-15 16:18 | 50.73361 | 7.08358 | 25833 ft | 405 kts | 15° |
| 2026-04-15 16:18 | 50.76078 | 7.09730 | 25588 ft | 404 kts | 15° |
| 2026-04-15 16:18 | 50.78731 | 7.11069 | 25353 ft | 413 kts | 15° |
| 2026-04-15 16:19 | 50.81538 | 7.12480 | 25112 ft | 434 kts | 15° |
| 2026-04-15 16:19 | 50.84451 | 7.13948 | 24873 ft | 442 kts | 15° |
| 2026-04-15 16:19 | 50.87387 | 7.15432 | 24641 ft | 443 kts | 15° |
| 2026-04-15 16:19 | 50.90313 | 7.16918 | 24414 ft | 442 kts | 15° |
| 2026-04-15 16:20 | 50.93247 | 7.18417 | 24181 ft | 441 kts | 15° |
| 2026-04-15 16:20 | 50.96165 | 7.19914 | 23951 ft | 440 kts | 16° |
| 2026-04-15 16:20 | 50.99073 | 7.21408 | 23724 ft | 439 kts | 16° |
| 2026-04-15 16:20 | 51.01988 | 7.22902 | 23449 ft | 443 kts | 16° |
| 2026-04-15 16:21 | 51.04938 | 7.24412 | 23177 ft | 447 kts | 15° |
| 2026-04-15 16:21 | 51.07894 | 7.25924 | 22909 ft | 446 kts | 16° |
| 2026-04-15 16:21 | 51.10846 | 7.27439 | 22644 ft | 445 kts | 16° |
| 2026-04-15 16:21 | 51.13792 | 7.28951 | 22381 ft | 443 kts | 16° |
| 2026-04-15 16:22 | 51.16720 | 7.30454 | 22118 ft | 442 kts | 15° |
| 2026-04-15 16:22 | 51.19641 | 7.31955 | 21863 ft | 440 kts | 16° |
| 2026-04-15 16:22 | 51.22544 | 7.33453 | 21603 ft | 439 kts | 16° |
| 2026-04-15 16:22 | 51.25314 | 7.34885 | 21353 ft | 437 kts | 16° |
| 2026-04-15 16:23 | 51.28242 | 7.36403 | 21100 ft | 435 kts | 16° |
| 2026-04-15 16:23 | 51.31114 | 7.37892 | 20850 ft | 434 kts | 16° |
| 2026-04-15 16:23 | 51.33982 | 7.39377 | 20604 ft | 432 kts | 16° |
| 2026-04-15 16:23 | 51.36805 | 7.40840 | 20356 ft | 431 kts | 16° |
| 2026-04-15 16:24 | 51.39650 | 7.42318 | 20112 ft | 429 kts | 16° |
| 2026-04-15 16:24 | 51.42488 | 7.43797 | 19866 ft | 428 kts | 16° |
| 2026-04-15 16:24 | 51.45311 | 7.45267 | 19631 ft | 427 kts | 16° |
| 2026-04-15 16:24 | 51.48133 | 7.46738 | 19388 ft | 425 kts | 16° |
| 2026-04-15 16:25 | 51.50939 | 7.48205 | 19147 ft | 424 kts | 16° |
| 2026-04-15 16:25 | 51.53740 | 7.49672 | 18913 ft | 423 kts | 16° |
| 2026-04-15 16:25 | 51.56529 | 7.51132 | 18679 ft | 421 kts | 16° |
| 2026-04-15 16:25 | 51.59312 | 7.52589 | 18445 ft | 420 kts | 16° |
| 2026-04-15 16:26 | 51.62087 | 7.54045 | 18175 ft | 419 kts | 16° |
| 2026-04-15 16:26 | 51.64852 | 7.55502 | 17904 ft | 417 kts | 16° |
| 2026-04-15 16:26 | 51.67586 | 7.56948 | 17177 ft | 411 kts | 16° |
| 2026-04-15 16:26 | 51.70267 | 7.58378 | 16258 ft | 401 kts | 18° |
| 2026-04-15 16:27 | 51.72777 | 7.60213 | 15360 ft | 392 kts | 25° |
| 2026-04-15 16:27 | 51.75181 | 7.62177 | 14486 ft | 383 kts | 25° |
| 2026-04-15 16:27 | 51.77530 | 7.64106 | 13582 ft | 375 kts | 25° |
| 2026-04-15 16:27 | 51.79828 | 7.66004 | 12642 ft | 367 kts | 25° |
| 2026-04-15 16:28 | 51.82079 | 7.67868 | 11725 ft | 360 kts | 26° |
| 2026-04-15 16:28 | 51.84289 | 7.69697 | 10825 ft | 354 kts | 26° |
| 2026-04-15 16:28 | 51.86465 | 7.71492 | 9955 ft | 348 kts | 26° |
| 2026-04-15 16:28 | 51.88608 | 7.73252 | 8983 ft | 343 kts | 26° |
| 2026-04-15 16:29 | 51.90713 | 7.74981 | 8315 ft | 332 kts | 26° |
| 2026-04-15 16:29 | 51.92698 | 7.76731 | 7806 ft | 318 kts | 34° |
| 2026-04-15 16:29 | 51.94459 | 7.78773 | 7310 ft | 306 kts | 35° |
| 2026-04-15 16:29 | 51.96162 | 7.80752 | 6815 ft | 296 kts | 36° |
| 2026-04-15 16:30 | 51.97817 | 7.82668 | 6312 ft | 288 kts | 36° |
| 2026-04-15 16:30 | 51.99429 | 7.84534 | 5787 ft | 282 kts | 36° |
| 2026-04-15 16:30 | 52.01006 | 7.86366 | 5280 ft | 276 kts | 36° |
| 2026-04-15 16:30 | 52.02518 | 7.88124 | 5022 ft | 262 kts | 36° |
| 2026-04-15 16:31 | 52.03934 | 7.89774 | 5014 ft | 241 kts | 36° |
| 2026-04-15 16:31 | 52.05265 | 7.91325 | 5011 ft | 232 kts | 36° |
| 2026-04-15 16:31 | 52.06569 | 7.92846 | 5007 ft | 231 kts | 36° |
| 2026-04-15 16:31 | 52.07889 | 7.94319 | 5008 ft | 230 kts | 34° |
| 2026-04-15 16:32 | 52.09229 | 7.95746 | 5008 ft | 230 kts | 33° |
| 2026-04-15 16:32 | 52.10580 | 7.97169 | 4810 ft | 233 kts | 33° |
| 2026-04-15 16:32 | 52.11922 | 7.98586 | 4493 ft | 226 kts | 33° |
| 2026-04-15 16:32 | 52.13218 | 7.99954 | 4178 ft | 219 kts | 33° |
| 2026-04-15 16:33 | 52.14499 | 8.01303 | 3877 ft | 219 kts | 33° |
| 2026-04-15 16:33 | 52.15782 | 8.02655 | 3577 ft | 221 kts | 33° |
| 2026-04-15 16:33 | 52.17090 | 8.03976 | 3264 ft | 221 kts | 24° |
| 2026-04-15 16:33 | 52.18570 | 8.04281 | 3024 ft | 214 kts | 345° |
| 2026-04-15 16:34 | 52.19794 | 8.03170 | 3003 ft | 196 kts | 308° |
| 2026-04-15 16:34 | 52.20405 | 8.01255 | 3032 ft | 189 kts | 283° |
| 2026-04-15 16:34 | 52.20273 | 7.99201 | 3007 ft | 184 kts | 248° |
| 2026-04-15 16:34 | 52.19765 | 7.97313 | 3036 ft | 184 kts | 245° |
| 2026-04-15 16:35 | 52.19243 | 7.95401 | 2979 ft | 184 kts | 245° |
| 2026-04-15 16:35 | 52.18752 | 7.93457 | 2925 ft | 188 kts | 248° |
| 2026-04-15 16:35 | 52.18256 | 7.91468 | 2954 ft | 192 kts | 246° |
| 2026-04-15 16:35 | 52.17766 | 7.89392 | 2851 ft | 200 kts | 249° |
| 2026-04-15 16:36 | 52.17342 | 7.87268 | 2618 ft | 192 kts | 253° |
| 2026-04-15 16:36 | 52.17020 | 7.85247 | 2412 ft | 176 kts | 255° |
| 2026-04-15 16:36 | 52.16693 | 7.83398 | 2152 ft | 163 kts | 246° |
| 2026-04-15 16:36 | 52.16335 | 7.81716 | 1884 ft | 155 kts | 249° |
| 2026-04-15 16:37 | 52.15956 | 7.80056 | 1660 ft | 156 kts | 248° |
| 2026-04-15 16:37 | 52.15582 | 7.78427 | 1404 ft | 151 kts | 250° |
| 2026-04-15 16:37 | 52.15238 | 7.76811 | 1154 ft | 149 kts | 251° |
| 2026-04-15 16:37 | 52.14896 | 7.75204 | 944 ft | 151 kts | 250° |
| 2026-04-15 16:38 | 52.14551 | 7.73580 | 702 ft | 152 kts | 248° |
| 2026-04-15 16:38 | 52.14205 | 7.71958 | 479 ft | 152 kts | 249° |
| 2026-04-15 16:38 | 52.13860 | 7.70341 | 297 ft | 150 kts | 248° |
| 2026-04-15 16:38 | 52.13530 | 7.68794 | 169 ft | 133 kts | 250° |
| 2026-04-15 16:39 | 52.13312 | 7.67762 | 166 ft | 53 kts | 251° |
| 2026-04-15 16:39 | 52.13212 | 7.67289 | 165 ft | 44 kts | 250° |
| 2026-04-15 16:39 | 52.13122 | 7.67051 | 167 ft | 17 kts | 184° |
| 2026-04-15 16:39 | 52.13034 | 7.67164 | 167 ft | 18 kts | 116° |
| 2026-04-15 16:40 | 52.13053 | 7.67363 | 167 ft | 19 kts | 70° |
| 2026-04-15 16:40 | 52.13100 | 7.67584 | 167 ft | 22 kts | 72° |
| 2026-04-15 16:40 | 52.13154 | 7.67831 | 167 ft | 24 kts | 71° |
| 2026-04-15 16:40 | 52.13208 | 7.68104 | 168 ft | 27 kts | 72° |
| 2026-04-15 16:41 | 52.13273 | 7.68398 | 168 ft | 29 kts | 71° |
| 2026-04-15 16:41 | 52.13338 | 7.68716 | 168 ft | 31 kts | 71° |
| 2026-04-15 16:41 | 52.13315 | 7.68869 | 167 ft | 15 kts | 155° |
| 2026-04-15 16:41 | 52.13207 | 7.68928 | 167 ft | 18 kts | 161° |
| 2026-04-15 16:42 | 52.13171 | 7.69053 | 167 ft | 15 kts | 73° |
| 2026-04-15 16:42 | 52.13208 | 7.69228 | 167 ft | 12 kts | 72° |
| 2026-04-15 16:42 | 52.13189 | 7.69238 | 167 ft | 6 kts | 191° |
| 2026-04-15 16:42 | 52.13132 | 7.69210 | 167 ft | 2 kts | 197° |
| 2026-04-15 16:43 | 52.13132 | 7.69209 | 167 ft | 0 kts | 197° |